Time;durP1;ratioP1;P1;durP2;ratioP2;P2;SDS_P1;SDS_P2;PMS_P1;PMS_P2;Temp;Humidity;BMP_temperature;BMP_pressure;BME280_temperature;BME280_humidity;BME280_pressure;Samples;Min_cycle;Max_cycle;Signal;HPM_P1;HPM_P2
2022/05/17 00:01:20;;;;;;;;;12.67;9.33;;;;;;;;4898237;28;45650;-77
2022/05/17 00:03:45;;;;;;;;;11.00;9.67;;;;;;;;4908040;28;45443;-77
2022/05/17 00:06:10;;;;;;;;;8.67;8.33;;;;;;;;4901975;28;45827;-80
2022/05/17 00:08:36;;;;;;;;;12.67;11.00;;;;;;;;4898935;28;47459;-79
2022/05/17 00:11:01;;;;;;;;;10.33;10.00;;;;;;;;4900361;28;46803;-77
2022/05/17 00:13:26;;;;;;;;;9.67;8.67;;;;;;;;4899584;28;45476;-78
2022/05/17 00:15:52;;;;;;;;;11.00;11.00;;;;;;;;4913048;28;45719;-79
2022/05/17 00:18:19;;;;;;;;;11.33;11.33;;;;;;;;4891507;28;46339;-79
2022/05/17 00:20:44;;;;;;;;;12.33;9.67;;;;;;;;4889419;29;46269;-79
2022/05/17 00:23:12;;;;;;;;;12.33;12.00;;;;;;;;4905892;28;45438;-78
2022/05/17 00:25:37;;;;;;;;;10.00;10.00;;;;;;;;4880386;29;45556;-79
2022/05/17 00:28:03;;;;;;;;;10.00;9.00;;;;;;;;4913356;28;46030;-79
2022/05/17 00:30:29;;;;;;;;;10.67;10.67;;;;;;;;4915134;28;46161;-81
2022/05/17 00:32:54;;;;;;;;;9.67;9.00;;;;;;;;4906520;28;45739;-78
2022/05/17 00:35:19;;;;;;;;;9.33;8.67;;;;;;;;4887396;28;45494;-79
2022/05/17 00:37:45;;;;;;;;;7.00;7.00;;;;;;;;4905335;28;45694;-78
2022/05/17 00:40:11;;;;;;;;;13.00;9.00;;;;;;;;4906456;28;46213;-78
2022/05/17 00:42:36;;;;;;;;;8.33;8.33;;;;;;;;4899509;28;45591;-79
2022/05/17 00:45:02;;;;;;;;;6.67;6.67;;;;;;;;4914640;28;45566;-79
2022/05/17 00:47:32;;;;;;;;;8.33;7.67;;;;;;;;4911837;28;45496;-79
2022/05/17 00:50:04;;;;;;;;;4.33;4.33;;;;;;;;4899216;28;48181;-79
2022/05/17 00:52:36;;;;;;;;;8.00;7.00;;;;;;;;4915887;28;45865;-78
2022/05/17 00:55:22;;;;;;;;;6.00;5.00;;;;;;;;4916450;28;45962;-79
2022/05/17 00:57:54;;;;;;;;;3.00;3.00;;;;;;;;4900500;28;45566;-79
2022/05/17 01:00:19;;;;;;;;;7.33;5.00;;;;;;;;4908538;28;46102;-80
2022/05/17 01:02:50;;;;;;;;;7.67;5.00;;;;;;;;4898591;28;46176;-78
2022/05/17 01:05:17;;;;;;;;;6.33;5.00;;;;;;;;4898520;28;45496;-78
2022/05/17 01:07:44;;;;;;;;;7.33;5.33;;;;;;;;4904974;28;45458;-78
2022/05/17 01:10:10;;;;;;;;;5.67;5.67;;;;;;;;4896001;28;45846;-80
2022/05/17 01:12:36;;;;;;;;;6.67;6.00;;;;;;;;4895030;28;45842;-78
2022/05/17 01:15:03;;;;;;;;;6.33;5.00;;;;;;;;4896545;28;45531;-76
2022/05/17 01:17:34;;;;;;;;;5.33;5.33;;;;;;;;4912792;28;45454;-78
2022/05/17 01:20:00;;;;;;;;;4.00;4.00;;;;;;;;4913934;28;46024;-75
2022/05/17 01:22:26;;;;;;;;;5.67;5.33;;;;;;;;4881686;28;45996;-77
2022/05/17 01:24:51;;;;;;;;;7.67;5.67;;;;;;;;4906886;28;45884;-78
2022/05/17 01:27:23;;;;;;;;;6.67;6.33;;;;;;;;4891652;28;46058;-77
2022/05/17 01:29:50;;;;;;;;;4.00;4.00;;;;;;;;4915317;28;46524;-79
2022/05/17 01:32:15;;;;;;;;;5.33;5.00;;;;;;;;4914736;28;45948;-79
2022/05/17 01:34:40;;;;;;;;;7.33;5.33;;;;;;;;4913950;28;45487;-77
2022/05/17 01:37:06;;;;;;;;;6.67;5.33;;;;;;;;4890073;28;46326;-78
2022/05/17 01:39:32;;;;;;;;;6.33;6.33;;;;;;;;4912412;28;45586;-77
2022/05/17 01:41:57;;;;;;;;;6.67;4.33;;;;;;;;4896775;28;45285;-79
2022/05/17 01:44:23;;;;;;;;;4.00;3.00;;;;;;;;4878030;28;45545;-78
2022/05/17 01:46:48;;;;;;;;;6.33;6.33;;;;;;;;4895979;28;45501;-80
2022/05/17 01:49:13;;;;;;;;;4.67;3.00;;;;;;;;4893970;28;46050;-78
2022/05/17 01:51:39;;;;;;;;;5.33;5.33;;;;;;;;4899671;28;45800;-79
2022/05/17 01:54:04;;;;;;;;;4.00;4.00;;;;;;;;4904190;28;45403;-80
2022/05/17 01:56:31;;;;;;;;;6.00;4.67;;;;;;;;4913161;28;45412;-80
2022/05/17 01:58:57;;;;;;;;;4.33;3.33;;;;;;;;4923160;28;46131;-78
2022/05/17 02:01:22;;;;;;;;;4.33;4.33;;;;;;;;4912710;28;45852;-79
2022/05/17 02:03:47;;;;;;;;;3.67;3.00;;;;;;;;4911859;28;45959;-78
2022/05/17 02:06:13;;;;;;;;;4.00;4.00;;;;;;;;4907609;28;46005;-80
2022/05/17 02:08:38;;;;;;;;;4.67;4.00;;;;;;;;4914147;28;45868;-78
2022/05/17 02:11:03;;;;;;;;;5.00;4.33;;;;;;;;4912938;28;45502;-77
2022/05/17 02:13:29;;;;;;;;;5.00;5.00;;;;;;;;4918234;28;45939;-78
2022/05/17 02:15:55;;;;;;;;;5.67;5.67;;;;;;;;4930017;28;45971;-78
2022/05/17 02:18:20;;;;;;;;;4.00;4.00;;;;;;;;4913062;28;46889;-79
2022/05/17 02:20:46;;;;;;;;;8.33;5.67;;;;;;;;4928716;28;45429;-77
2022/05/17 02:23:11;;;;;;;;;3.33;2.33;;;;;;;;4929380;28;45431;-78
2022/05/17 02:25:36;;;;;;;;;5.33;4.00;;;;;;;;4928512;28;45621;-78
2022/05/17 02:28:03;;;;;;;;;5.00;3.67;;;;;;;;4924304;28;46044;-77
2022/05/17 02:30:29;;;;;;;;;3.00;3.00;;;;;;;;4908148;28;45367;-77
2022/05/17 02:32:54;;;;;;;;;5.00;5.00;;;;;;;;4903314;28;45717;-79
2022/05/17 02:35:19;;;;;;;;;2.33;2.33;;;;;;;;4932261;28;45727;-78
2022/05/17 02:37:45;;;;;;;;;3.00;3.00;;;;;;;;4927485;28;46379;-79
2022/05/17 02:40:10;;;;;;;;;2.67;2.00;;;;;;;;4912990;28;45478;-79
2022/05/17 02:42:35;;;;;;;;;5.33;3.00;;;;;;;;4929320;28;45341;-79
2022/05/17 02:45:01;;;;;;;;;2.00;2.00;;;;;;;;4922175;28;45413;-79
2022/05/17 02:47:26;;;;;;;;;3.00;3.00;;;;;;;;4929518;28;45740;-78
2022/05/17 02:49:51;;;;;;;;;4.00;4.00;;;;;;;;4928809;28;45772;-79
2022/05/17 02:52:17;;;;;;;;;2.00;2.00;;;;;;;;4920113;28;45724;-81
2022/05/17 02:54:42;;;;;;;;;3.00;2.00;;;;;;;;4922679;28;45847;-80
2022/05/17 02:57:08;;;;;;;;;3.67;3.67;;;;;;;;4921731;28;45725;-76
2022/05/17 02:59:34;;;;;;;;;3.67;3.67;;;;;;;;4929167;28;45497;-79
2022/05/17 03:01:59;;;;;;;;;5.67;4.67;;;;;;;;4924609;28;45494;-77
2022/05/17 03:04:26;;;;;;;;;4.00;4.00;;;;;;;;4907782;28;45582;-77
2022/05/17 03:06:51;;;;;;;;;5.00;4.00;;;;;;;;4924093;28;45469;-77
2022/05/17 03:09:17;;;;;;;;;4.00;4.00;;;;;;;;4910692;28;45448;-79
2022/05/17 03:11:43;;;;;;;;;2.67;2.67;;;;;;;;4903095;28;45530;-77
2022/05/17 03:14:09;;;;;;;;;4.00;3.67;;;;;;;;4905203;28;45784;-79
2022/05/17 03:16:34;;;;;;;;;3.00;3.00;;;;;;;;4907406;28;45785;-79
2022/05/17 03:19:00;;;;;;;;;5.67;4.00;;;;;;;;4904246;28;45526;-78
2022/05/17 03:21:25;;;;;;;;;3.67;3.67;;;;;;;;4905523;28;45467;-78
2022/05/17 03:23:51;;;;;;;;;4.00;4.00;;;;;;;;4917627;28;46838;-79
2022/05/17 03:26:16;;;;;;;;;3.33;3.33;;;;;;;;4902940;28;45491;-77
2022/05/17 03:28:41;;;;;;;;;5.33;4.00;;;;;;;;4904193;28;46449;-79
2022/05/17 03:31:07;;;;;;;;;3.00;3.00;;;;;;;;4904142;28;45637;-79
2022/05/17 03:33:33;;;;;;;;;3.00;3.00;;;;;;;;4916496;28;45731;-77
2022/05/17 03:35:58;;;;;;;;;2.67;2.67;;;;;;;;4910856;28;46932;-78
2022/05/17 03:38:23;;;;;;;;;4.00;2.33;;;;;;;;4911877;28;45527;-79
2022/05/17 03:40:50;;;;;;;;;5.00;5.00;;;;;;;;4904222;28;45753;-80
2022/05/17 03:43:16;;;;;;;;;0.00;0.00;;;;;;;;4902156;28;45695;-79
2022/05/17 03:45:41;;;;;;;;;4.67;3.67;;;;;;;;4900111;28;45875;-79
2022/05/17 03:48:07;;;;;;;;;5.67;4.67;;;;;;;;4904918;28;45711;-80
2022/05/17 03:50:40;;;;;;;;;7.33;6.33;;;;;;;;4910279;28;46321;-81
2022/05/17 03:53:06;;;;;;;;;4.00;4.00;;;;;;;;4910846;28;45593;-81
2022/05/17 03:55:31;;;;;;;;;6.33;4.33;;;;;;;;4913979;28;45774;-77
2022/05/17 03:57:56;;;;;;;;;5.67;4.67;;;;;;;;4911962;28;45360;-78
2022/05/17 04:00:22;;;;;;;;;5.67;5.67;;;;;;;;4913605;28;45676;-77
2022/05/17 04:02:47;;;;;;;;;7.00;6.00;;;;;;;;4889672;28;47033;-77
2022/05/17 04:05:13;;;;;;;;;8.00;6.00;;;;;;;;4904402;28;46186;-77
2022/05/17 04:07:38;;;;;;;;;6.67;5.67;;;;;;;;4909042;28;45746;-77
2022/05/17 04:10:04;;;;;;;;;5.67;5.67;;;;;;;;4882805;28;45741;-77
2022/05/17 04:12:29;;;;;;;;;8.33;5.67;;;;;;;;4883125;28;47559;-77
2022/05/17 04:14:55;;;;;;;;;9.00;7.00;;;;;;;;4909047;28;46352;-77
2022/05/17 04:17:20;;;;;;;;;10.33;8.67;;;;;;;;4912159;28;45494;-77
2022/05/17 04:19:46;;;;;;;;;8.33;6.67;;;;;;;;4891234;28;45688;-79
2022/05/17 04:22:11;;;;;;;;;8.33;5.67;;;;;;;;4916715;28;45765;-78
2022/05/17 04:24:41;;;;;;;;;11.33;9.67;;;;;;;;4917101;28;46354;-77
2022/05/17 04:27:07;;;;;;;;;9.33;9.33;;;;;;;;4921271;28;45849;-78
2022/05/17 04:29:32;;;;;;;;;6.33;6.33;;;;;;;;4897835;28;45522;-79
2022/05/17 04:31:57;;;;;;;;;11.00;8.33;;;;;;;;4919670;28;45423;-79
2022/05/17 04:34:22;;;;;;;;;11.33;8.33;;;;;;;;4914265;28;45833;-78
2022/05/17 04:36:48;;;;;;;;;14.67;10.00;;;;;;;;4919062;28;45820;-77
2022/05/17 04:39:13;;;;;;;;;12.67;9.67;;;;;;;;4919422;28;45425;-77
2022/05/17 04:41:38;;;;;;;;;16.67;14.00;;;;;;;;4914838;28;45642;-78
2022/05/17 04:44:04;;;;;;;;;11.50;10.50;;;;;;;;4913466;28;46763;-78
2022/05/17 04:46:29;;;;;;;;;12.67;11.33;;;;;;;;4923207;28;45858;-78
2022/05/17 04:48:54;;;;;;;;;12.00;10.67;;;;;;;;4917421;28;45909;-77
2022/05/17 04:51:19;;;;;;;;;16.67;14.00;;;;;;;;4918902;28;45714;-78
2022/05/17 04:53:45;;;;;;;;;17.67;10.33;;;;;;;;4902972;28;47861;-78
2022/05/17 04:56:11;;;;;;;;;10.33;9.33;;;;;;;;4917434;28;45688;-78
2022/05/17 04:58:36;;;;;;;;;9.67;8.00;;;;;;;;4903644;28;45994;-79
2022/05/17 05:01:02;;;;;;;;;12.67;10.33;;;;;;;;4919608;28;45300;-78
2022/05/17 05:03:27;;;;;;;;;13.67;12.00;;;;;;;;4915928;28;46909;-81
2022/05/17 05:05:53;;;;;;;;;10.00;9.67;;;;;;;;4900202;28;45517;-79
2022/05/17 05:08:20;;;;;;;;;13.33;11.00;;;;;;;;4899848;28;45541;-79
2022/05/17 05:10:46;;;;;;;;;13.33;11.00;;;;;;;;4913083;28;46470;-78
2022/05/17 05:13:19;;;;;;;;;14.33;10.00;;;;;;;;4909968;28;45792;-80
2022/05/17 05:15:44;;;;;;;;;13.00;10.00;;;;;;;;4916532;28;45522;-81
2022/05/17 05:18:10;;;;;;;;;15.33;12.00;;;;;;;;4917070;28;46055;-79
2022/05/17 05:20:35;;;;;;;;;58.67;45.00;;;;;;;;4901688;28;46017;-79
2022/05/17 05:23:01;;;;;;;;;51.00;38.67;;;;;;;;4913300;28;45465;-78
2022/05/17 05:25:27;;;;;;;;;21.00;14.33;;;;;;;;4913847;28;45533;-78
2022/05/17 05:27:59;;;;;;;;;19.00;14.00;;;;;;;;4910867;28;45609;-81
2022/05/17 05:30:24;;;;;;;;;18.33;14.33;;;;;;;;4915591;28;45487;-80
2022/05/17 05:32:50;;;;;;;;;17.67;13.33;;;;;;;;5322013;23;46800;-83
2022/05/17 05:35:16;;;;;;;;;18.67;15.00;;;;;;;;4977795;28;45714;-81
2022/05/17 05:37:42;;;;;;;;;15.33;14.67;;;;;;;;4969639;28;45373;-79
2022/05/17 05:40:08;;;;;;;;;16.33;15.00;;;;;;;;4983444;28;45384;-80
2022/05/17 05:42:33;;;;;;;;;18.00;14.33;;;;;;;;4972343;28;47515;-79
2022/05/17 05:44:59;;;;;;;;;15.33;14.33;;;;;;;;4968970;28;45595;-80
2022/05/17 05:47:24;;;;;;;;;15.00;9.67;;;;;;;;4965569;28;45769;-79
2022/05/17 05:49:49;;;;;;;;;18.67;14.33;;;;;;;;4963801;28;45484;-83
2022/05/17 05:52:15;;;;;;;;;20.00;15.33;;;;;;;;4968619;28;45857;-79
2022/05/17 05:54:41;;;;;;;;;17.00;11.67;;;;;;;;4958508;28;45355;-81
2022/05/17 05:57:06;;;;;;;;;20.67;18.00;;;;;;;;4967255;28;45893;-81
2022/05/17 05:59:32;;;;;;;;;21.67;15.33;;;;;;;;4975252;28;45340;-79
2022/05/17 06:01:57;;;;;;;;;21.67;18.00;;;;;;;;4974691;28;45494;-79
2022/05/17 06:04:25;;;;;;;;;70.25;53.00;;;;;;;;4968556;28;45537;-79
2022/05/17 06:06:50;;;;;;;;;40.33;22.33;;;;;;;;4962089;28;45418;-82
2022/05/17 06:09:15;;;;;;;;;11.33;6.67;;;;;;;;4953552;28;46516;-82
2022/05/17 06:11:40;;;;;;;;;20.00;17.00;;;;;;;;4972342;28;45635;-81
2022/05/17 06:14:07;;;;;;;;;23.67;16.67;;;;;;;;4953319;28;45523;-81
2022/05/17 06:16:40;;;;;;;;;21.67;15.33;;;;;;;;4967065;28;45805;-80
2022/05/17 06:19:12;;;;;;;;;13.00;12.33;;;;;;;;4968993;28;45503;-80
2022/05/17 06:21:38;;;;;;;;;17.33;14.00;;;;;;;;4942305;28;45481;-79
2022/05/17 06:24:04;;;;;;;;;15.33;12.33;;;;;;;;4944817;28;45471;-74
2022/05/17 06:26:29;;;;;;;;;13.67;11.00;;;;;;;;4948768;28;45421;-76
2022/05/17 06:28:56;;;;;;;;;15.67;14.00;;;;;;;;4962895;28;45559;-79
2022/05/17 06:31:23;;;;;;;;;18.33;13.00;;;;;;;;4957738;28;45968;-78
2022/05/17 06:33:48;;;;;;;;;20.00;17.00;;;;;;;;4940885;28;45385;-78
2022/05/17 06:36:15;;;;;;;;;19.33;13.00;;;;;;;;4936929;28;46011;-78
2022/05/17 06:38:56;;;;;;;;;16.33;13.33;;;;;;;;4942101;28;47047;-76
2022/05/17 06:41:32;;;;;;;;;17.67;11.00;;;;;;;;4938014;28;45624;-76
2022/05/17 06:44:00;;;;;;;;;9.25;8.00;;;;;;;;4948788;28;46063;-77
2022/05/17 06:47:08;;;;;;;;;;;;;;;;;;;;;
2022/05/17 06:49:40;;;;;;;;;5.25;5.25;;;;;;;;4921244;28;73385;-77
2022/05/17 06:52:08;;;;;;;;;10.50;9.75;;;;;;;;4935351;28;46168;-76
2022/05/17 06:54:34;;;;;;;;;6.50;6.50;;;;;;;;4941826;28;45934;-76
2022/05/17 07:00:36;;;;;;;;;9.50;5.50;;;;;;;;4859790;29;45571;-76
2022/05/17 07:03:05;;;;;;;;;6.00;5.50;;;;;;;;4886820;29;46128;-77
2022/05/17 07:05:30;;;;;;;;;6.67;6.67;;;;;;;;4872335;29;45574;-77
2022/05/17 07:07:59;;;;;;;;;7.33;5.00;;;;;;;;4895497;28;45506;-78
2022/05/17 07:13:08;;;;;;;;;4.00;3.25;;;;;;;;4938622;28;45723;-78
2022/05/17 07:15:34;;;;;;;;;7.00;5.00;;;;;;;;4940846;28;45660;-79
2022/05/17 07:18:01;;;;;;;;;7.00;5.33;;;;;;;;4943592;28;45842;-80
2022/05/17 07:20:27;;;;;;;;;5.33;5.00;;;;;;;;4947687;28;45607;-78
2022/05/17 07:22:53;;;;;;;;;3.00;3.00;;;;;;;;4934696;28;45678;-78
2022/05/17 07:25:18;;;;;;;;;4.00;4.00;;;;;;;;4939407;28;45680;-77
2022/05/17 07:27:45;;;;;;;;;6.33;5.67;;;;;;;;4939459;28;45467;-77
2022/05/17 07:30:11;;;;;;;;;8.00;5.67;;;;;;;;4939717;28;45851;-78
2022/05/17 07:32:38;;;;;;;;;6.67;5.00;;;;;;;;4940447;28;45630;-76
2022/05/17 07:35:03;;;;;;;;;2.00;2.00;;;;;;;;4956689;28;45448;-76
2022/05/17 07:37:29;;;;;;;;;7.00;4.33;;;;;;;;4950499;28;45858;-77
2022/05/17 07:39:55;;;;;;;;;5.00;3.33;;;;;;;;4964102;28;45810;-76
2022/05/17 07:42:20;;;;;;;;;3.00;3.00;;;;;;;;4941276;28;48140;-76
2022/05/17 07:44:45;;;;;;;;;2.67;2.00;;;;;;;;4959882;28;45894;-76
2022/05/17 07:47:11;;;;;;;;;3.67;2.67;;;;;;;;4959449;28;46012;-77
2022/05/17 07:49:42;;;;;;;;;5.00;4.00;;;;;;;;4956413;28;45988;-78
2022/05/17 07:52:08;;;;;;;;;1.67;1.67;;;;;;;;4944954;28;46597;-77
2022/05/17 07:54:37;;;;;;;;;2.00;2.00;;;;;;;;4957000;28;45424;-77
2022/05/17 07:57:03;;;;;;;;;1.33;1.33;;;;;;;;4950307;28;45996;-77
2022/05/17 07:59:28;;;;;;;;;0.67;0.67;;;;;;;;4944035;28;45544;-77
2022/05/17 08:01:54;;;;;;;;;4.67;1.67;;;;;;;;4945906;28;45624;-80
2022/05/17 08:04:20;;;;;;;;;3.67;3.67;;;;;;;;4946175;28;45505;-80
2022/05/17 08:06:47;;;;;;;;;4.00;2.33;;;;;;;;4962762;28;45544;-79
2022/05/17 08:09:16;;;;;;;;;2.67;2.67;;;;;;;;4965326;28;45724;-78
2022/05/17 08:11:44;;;;;;;;;3.00;3.00;;;;;;;;4941221;28;46141;-79
2022/05/17 08:14:13;;;;;;;;;6.67;3.00;;;;;;;;4957844;28;45961;-80
2022/05/17 08:16:40;;;;;;;;;4.33;3.00;;;;;;;;4956074;28;46066;-78
2022/05/17 08:19:05;;;;;;;;;3.33;2.00;;;;;;;;4957728;28;46099;-82
2022/05/17 08:21:30;;;;;;;;;5.00;2.33;;;;;;;;4938601;28;47954;-78
2022/05/17 08:23:56;;;;;;;;;3.33;1.67;;;;;;;;4954540;28;45744;-77
2022/05/17 08:29:05;;;;;;;;;3.00;2.67;;;;;;;;4957656;28;45799;-78
2022/05/17 08:31:31;;;;;;;;;3.00;3.00;;;;;;;;4958951;28;48035;-79
2022/05/17 08:33:57;;;;;;;;;2.33;2.00;;;;;;;;4957389;28;46417;-79
2022/05/17 08:36:22;;;;;;;;;4.00;3.00;;;;;;;;4942441;28;46481;-78
2022/05/17 08:38:50;;;;;;;;;2.00;2.00;;;;;;;;4952270;28;45551;-76
2022/05/17 08:41:24;;;;;;;;;1.33;1.33;;;;;;;;4955535;28;45891;-77
2022/05/17 08:43:53;;;;;;;;;1.00;1.00;;;;;;;;4939516;28;45674;-76
2022/05/17 08:46:26;;;;;;;;;1.00;1.00;;;;;;;;4955866;28;45810;-78
2022/05/17 08:48:54;;;;;;;;;2.67;2.00;;;;;;;;4957139;28;46062;-76
2022/05/17 08:51:46;;;;;;;;;3.00;1.00;;;;;;;;4936671;28;47516;-76
2022/05/17 08:54:23;;;;;;;;;1.33;1.33;;;;;;;;4917495;28;45757;-76
2022/05/17 08:57:04;;;;;;;;;2.00;2.00;;;;;;;;4940545;28;46029;-76
2022/05/17 08:59:33;;;;;;;;;1.00;1.00;;;;;;;;4949297;28;45778;-78
2022/05/17 09:02:01;;;;;;;;;1.00;1.00;;;;;;;;4947176;28;47080;-76
2022/05/17 09:04:45;;;;;;;;;1.00;1.00;;;;;;;;4964177;28;45892;-77
2022/05/17 09:07:25;;;;;;;;;1.67;0.67;;;;;;;;4956868;28;45572;-78
2022/05/17 09:09:51;;;;;;;;;3.00;1.00;;;;;;;;4958423;28;45675;-77
2022/05/17 09:12:28;;;;;;;;;1.00;1.00;;;;;;;;4961676;28;45436;-77
2022/05/17 09:14:56;;;;;;;;;1.00;1.00;;;;;;;;4951311;28;45547;-78
2022/05/17 09:17:25;;;;;;;;;1.00;1.00;;;;;;;;4943934;28;45863;-78
2022/05/17 09:23:35;;;;;;;;;2.00;1.00;;;;;;;;4891700;28;45850;-79
2022/05/17 09:28:46;;;;;;;;;1.00;1.00;;;;;;;;4927799;28;44859;-78
2022/05/17 09:31:28;;;;;;;;;0.00;0.00;;;;;;;;4961317;28;45807;-81
2022/05/17 09:34:12;;;;;;;;;3.00;2.00;;;;;;;;4933111;28;46990;-81
2022/05/17 09:40:51;;;;;;;;;1.33;1.33;;;;;;;;4927988;28;45753;-79
2022/05/17 09:43:14;;;;;;;;;;;;;;;;;;;;;
2022/05/17 09:45:49;;;;;;;;;1.00;1.00;;;;;;;;4915738;28;75777;-80
2022/05/17 09:48:26;;;;;;;;;2.67;0.67;;;;;;;;4915026;28;46524;-79
2022/05/17 09:53:44;;;;;;;;;1.00;1.00;;;;;;;;4917458;28;45789;-77
2022/05/17 09:56:16;;;;;;;;;0.00;0.00;;;;;;;;4925502;28;45882;-79
2022/05/17 09:58:42;;;;;;;;;2.00;1.00;;;;;;;;4926119;28;45307;-79
2022/05/17 10:01:14;;;;;;;;;0.00;0.00;;;;;;;;4918651;28;45837;-79
2022/05/17 10:03:41;;;;;;;;;0.00;0.00;;;;;;;;4931704;28;45923;-80
2022/05/17 10:06:12;;;;;;;;;2.00;0.00;;;;;;;;4924456;28;45769;-79
2022/05/17 10:09:00;;;;;;;;;0.00;0.00;;;;;;;;4920859;28;45973;-80
2022/05/17 10:11:35;;;;;;;;;1.00;1.00;;;;;;;;4934426;28;45776;-79
2022/05/17 10:14:09;;;;;;;;;0.00;0.00;;;;;;;;4924156;28;45945;-78
2022/05/17 10:16:48;;;;;;;;;0.00;0.00;;;;;;;;4932648;28;45959;-81
2022/05/17 10:19:35;;;;;;;;;0.00;0.00;;;;;;;;4935498;28;45684;-79
2022/05/17 10:22:22;;;;;;;;;1.33;1.33;;;;;;;;4933070;28;45458;-79
2022/05/17 10:25:08;;;;;;;;;0.00;0.00;;;;;;;;4938733;28;45436;-81
2022/05/17 10:27:54;;;;;;;;;0.00;0.00;;;;;;;;4943218;28;45882;-80
2022/05/17 10:30:55;;;;;;;;;;;;;;;;;;;;;
2022/05/17 10:33:29;;;;;;;;;0.00;0.00;;;;;;;;4926306;28;68118;-80
2022/05/17 10:39:38;;;;;;;;;0.00;0.00;;;;;;;;4881526;29;45579;-81
2022/05/17 10:42:38;;;;;;;;;0.00;0.00;;;;;;;;4911528;28;45388;-81
2022/05/17 10:48:50;;;;;;;;;0.00;0.00;;;;;;;;4863074;29;45427;-80
2022/05/17 10:54:28;;;;;;;;;0.75;0.75;;;;;;;;4805823;29;45543;-76
2022/05/17 11:09:18;;;;;;;;;1.00;1.00;;;;;;;;4873311;29;45602;-81
2022/05/17 11:12:23;;;;;;;;;2.25;2.00;;;;;;;;4883008;29;46308;-77
2022/05/17 11:14:54;;;;;;;;;1.25;1.25;;;;;;;;4896193;29;45537;-76
2022/05/17 11:17:41;;;;;;;;;1.75;0.75;;;;;;;;4892208;29;45823;-77
2022/05/17 11:20:22;;;;;;;;;1.25;1.00;;;;;;;;4878264;29;46028;-78
2022/05/17 11:22:53;;;;;;;;;1.75;1.00;;;;;;;;4876465;29;46682;-78
2022/05/17 11:25:36;;;;;;;;;1.00;1.00;;;;;;;;4945272;28;46302;-81
2022/05/17 11:28:04;;;;;;;;;3.25;1.00;;;;;;;;4973889;28;45852;-81
2022/05/17 11:31:07;;;;;;;;;;;;;;;;;;;;;
2022/05/17 11:34:07;;;;;;;;;2.50;1.00;;;;;;;;4846266;29;74342;-78
2022/05/17 11:37:08;;;;;;;;;2.00;2.00;;;;;;;;4875543;29;46060;-82
2022/05/17 11:46:11;;;;;;;;;;;;;;;;;;;;;
2022/05/17 11:52:31;;;;;;;;;1.75;0.75;;;;;;;;4911615;28;46023;-83
2022/05/17 11:58:33;;;;;;;;;1.00;1.00;;;;;;;;4855700;29;45817;-78
2022/05/17 12:01:40;;;;;;;;;2.50;2.50;;;;;;;;4857749;29;45877;-78
2022/05/17 12:04:49;;;;;;;;;1.00;1.00;;;;;;;;4899542;28;45564;-80
2022/05/17 12:07:52;;;;;;;;;1.75;1.75;;;;;;;;4854711;29;45961;-79
2022/05/17 12:10:24;;;;;;;;;2.50;2.25;;;;;;;;4845530;29;46091;-79
2022/05/17 12:13:19;;;;;;;;;2.75;2.00;;;;;;;;4856584;29;45955;-80
2022/05/17 12:15:52;;;;;;;;;2.25;2.25;;;;;;;;4928365;28;45559;-80
2022/05/17 12:18:45;;;;;;;;;2.75;2.00;;;;;;;;4947721;28;45927;-81
2022/05/17 12:21:28;;;;;;;;;2.25;2.25;;;;;;;;4940123;28;45968;-81
2022/05/17 12:24:01;;;;;;;;;0.00;0.00;;;;;;;;4964667;28;46567;-83
2022/05/17 12:26:36;;;;;;;;;3.75;3.75;;;;;;;;4964221;28;45500;-76
2022/05/17 12:30:53;;;;;;;;;2.50;2.50;;;;;;;;4954744;28;45447;-80
2022/05/17 12:31:56;;;;;;;;;4.00;3.00;;;;;;;;4967232;28;45436;-80
2022/05/17 12:34:24;;;;;;;;;2.25;2.00;;;;;;;;4957201;28;45918;-81
2022/05/17 12:36:51;;;;;;;;;4.00;3.00;;;;;;;;4945994;28;45907;-79
2022/05/17 12:44:56;;;;;;;;;2.00;2.00;;;;;;;;4969387;28;45473;-81
2022/05/17 12:47:51;;;;;;;;;1.75;1.25;;;;;;;;4967125;28;46395;-81
2022/05/17 12:50:19;;;;;;;;;2.00;2.00;;;;;;;;4940094;28;45608;-81
2022/05/17 12:52:47;;;;;;;;;2.25;2.25;;;;;;;;4963413;28;46001;-80
2022/05/17 12:55:21;;;;;;;;;3.00;3.00;;;;;;;;4962590;28;46351;-81
2022/05/17 12:57:48;;;;;;;;;2.25;2.25;;;;;;;;4986349;28;45554;-79
2022/05/17 13:00:16;;;;;;;;;2.00;2.00;;;;;;;;4975667;28;45522;-79
2022/05/17 13:02:43;;;;;;;;;2.50;2.00;;;;;;;;4959833;28;45705;-79
2022/05/17 13:05:23;;;;;;;;;2.00;2.00;;;;;;;;4970225;28;45682;-81
2022/05/17 13:07:57;;;;;;;;;3.25;3.25;;;;;;;;4959252;28;45440;-80
2022/05/17 13:10:25;;;;;;;;;3.00;3.00;;;;;;;;4949386;28;45727;-80
2022/05/17 13:13:31;;;;;;;;;4.00;3.00;;;;;;;;4967983;28;45786;-80
2022/05/17 13:19:41;;;;;;;;;;;;;;;;;;;;;
2022/05/17 13:22:13;;;;;;;;;4.00;3.75;;;;;;;;4966809;28;67291;-78
2022/05/17 13:25:02;;;;;;;;;2.25;2.25;;;;;;;;4963234;28;46039;-79
2022/05/17 13:27:42;;;;;;;;;3.75;2.25;;;;;;;;4973747;28;45829;-80
2022/05/17 13:30:30;;;;;;;;;5.33;3.00;;;;;;;;4940992;28;45901;-80
2022/05/17 13:33:08;;;;;;;;;2.67;2.67;;;;;;;;4960101;28;45529;-79
2022/05/17 13:35:45;;;;;;;;;3.00;3.00;;;;;;;;4938341;28;46067;-78
2022/05/17 13:38:49;;;;;;;;;4.25;3.00;;;;;;;;4957227;28;46671;-85
2022/05/17 13:41:21;;;;;;;;;3.00;3.00;;;;;;;;4949463;28;45574;-79
2022/05/17 13:43:55;;;;;;;;;3.25;3.25;;;;;;;;4947286;28;45587;-83
2022/05/17 13:47:27;;;;;;;;;;;;;;;;;;;;;
2022/05/17 13:50:02;;;;;;;;;;;;;;;;;;;;;
2022/05/17 13:59:00;;;;;;;;;3.75;3.75;;;;;;;;4918786;28;45437;-79
2022/05/17 14:01:59;;;;;;;;;6.67;2.33;;;;;;;;4953131;28;45450;-79
2022/05/17 14:04:58;;;;;;;;;;;;;;;;;;;;;
2022/05/17 14:07:47;;;;;;;;;4.00;4.00;;;;;;;;4920251;28;67412;-79
2022/05/17 14:13:25;;;;;;;;;4.00;3.00;;;;;;;;4947497;28;46177;-79
2022/05/17 14:16:27;;;;;;;;;;;;;;;;;;;;;
2022/05/17 14:19:04;;;;;;;;;3.75;3.75;;;;;;;;4940574;28;68845;-79
2022/05/17 14:21:30;;;;;;;;;3.25;3.00;;;;;;;;4944614;28;45854;-81
2022/05/17 14:24:09;;;;;;;;;3.75;1.75;;;;;;;;4941916;28;47012;-81
2022/05/17 14:26:35;;;;;;;;;4.75;3.50;;;;;;;;4945995;28;46076;-79
2022/05/17 14:29:22;;;;;;;;;4.50;3.00;;;;;;;;4940834;28;45852;-81
2022/05/17 14:32:05;;;;;;;;;2.25;2.25;;;;;;;;4935024;28;46475;-79
2022/05/17 14:34:34;;;;;;;;;3.50;2.50;;;;;;;;4947005;28;45714;-79
2022/05/17 14:37:11;;;;;;;;;2.75;2.75;;;;;;;;4960673;28;45489;-82
2022/05/17 14:39:48;;;;;;;;;3.75;3.00;;;;;;;;4944479;28;45507;-82
2022/05/17 14:42:18;;;;;;;;;2.75;2.75;;;;;;;;4958754;28;45242;-86
2022/05/17 14:44:47;;;;;;;;;3.00;3.00;;;;;;;;4947029;28;47002;-79
2022/05/17 14:47:16;;;;;;;;;4.25;3.25;;;;;;;;4942551;28;45526;-76
2022/05/17 14:49:44;;;;;;;;;4.00;3.50;;;;;;;;4962579;28;45859;-78
2022/05/17 14:52:09;;;;;;;;;3.00;3.00;;;;;;;;4941884;28;47241;-77
2022/05/17 14:54:36;;;;;;;;;2.00;2.00;;;;;;;;4942997;28;47450;-78
2022/05/17 14:57:01;;;;;;;;;5.00;4.00;;;;;;;;4957039;28;45497;-75
2022/05/17 14:59:26;;;;;;;;;3.67;3.00;;;;;;;;4947343;28;45688;-76
2022/05/17 15:01:53;;;;;;;;;3.67;3.67;;;;;;;;4943057;28;46706;-75
2022/05/17 15:04:20;;;;;;;;;2.25;2.25;;;;;;;;4939017;28;46638;-76
2022/05/17 15:06:55;;;;;;;;;3.50;3.50;;;;;;;;4958918;28;46033;-75
2022/05/17 15:09:24;;;;;;;;;4.00;4.00;;;;;;;;4957424;28;46169;-76
2022/05/17 15:11:50;;;;;;;;;4.75;3.50;;;;;;;;4958832;28;45898;-78
2022/05/17 15:14:15;;;;;;;;;3.00;3.00;;;;;;;;4938974;28;47938;-78
2022/05/17 15:16:41;;;;;;;;;3.75;3.00;;;;;;;;4943559;28;45798;-78
2022/05/17 15:19:08;;;;;;;;;4.25;2.75;;;;;;;;4966587;28;45650;-78
2022/05/17 15:21:36;;;;;;;;;3.75;3.75;;;;;;;;4965919;28;46251;-77
2022/05/17 15:24:04;;;;;;;;;3.00;3.00;;;;;;;;4961558;28;45835;-77
2022/05/17 15:26:30;;;;;;;;;4.25;4.25;;;;;;;;4961341;28;45923;-77
2022/05/17 15:28:56;;;;;;;;;5.00;5.00;;;;;;;;4947888;28;45385;-78
2022/05/17 15:31:23;;;;;;;;;5.00;4.00;;;;;;;;4958959;28;45762;-78
2022/05/17 15:33:49;;;;;;;;;4.50;3.00;;;;;;;;4966387;28;46231;-77
2022/05/17 15:36:15;;;;;;;;;2.67;2.33;;;;;;;;4944417;28;46013;-78
2022/05/17 15:38:42;;;;;;;;;4.00;4.00;;;;;;;;4961457;28;45512;-76
2022/05/17 15:41:08;;;;;;;;;3.00;3.00;;;;;;;;4957003;28;46033;-79
2022/05/17 15:43:35;;;;;;;;;3.50;2.50;;;;;;;;4945503;28;47296;-80
2022/05/17 15:46:11;;;;;;;;;4.25;3.25;;;;;;;;4960108;28;45715;-77
2022/05/17 15:54:11;;;;;;;;;5.75;5.00;;;;;;;;4967718;28;45890;-81
2022/05/17 15:56:38;;;;;;;;;3.67;3.67;;;;;;;;4949639;28;45877;-80
2022/05/17 15:59:06;;;;;;;;;5.00;4.00;;;;;;;;4966681;28;45611;-79
2022/05/17 16:01:32;;;;;;;;;4.33;4.33;;;;;;;;4946977;28;45910;-78
2022/05/17 16:06:46;;;;;;;;;6.00;5.00;;;;;;;;4957898;28;45776;-79
2022/05/17 16:09:19;;;;;;;;;3.00;3.00;;;;;;;;4941748;28;45573;-78
2022/05/17 16:11:48;;;;;;;;;4.67;4.67;;;;;;;;4941171;28;45469;-76
2022/05/17 16:14:18;;;;;;;;;5.00;4.25;;;;;;;;4963547;28;46228;-80
2022/05/17 16:16:47;;;;;;;;;7.00;3.67;;;;;;;;4976437;28;45503;-79
2022/05/17 16:19:17;;;;;;;;;3.75;3.75;;;;;;;;4955175;28;45911;-80
2022/05/17 16:21:43;;;;;;;;;3.75;3.75;;;;;;;;4946807;28;45841;-78
2022/05/17 16:24:09;;;;;;;;;3.25;3.25;;;;;;;;4940866;28;46329;-79
2022/05/17 16:26:34;;;;;;;;;6.25;3.75;;;;;;;;4940254;28;45696;-79
2022/05/17 16:29:05;;;;;;;;;4.00;4.00;;;;;;;;4944517;28;45953;-80
2022/05/17 16:31:32;;;;;;;;;7.00;5.75;;;;;;;;4953187;28;45588;-80
2022/05/17 16:33:59;;;;;;;;;4.00;4.00;;;;;;;;4943195;28;47813;-77